Time;durP1;ratioP1;P1;durP2;ratioP2;P2;SDS_P1;SDS_P2;PMS_P1;PMS_P2;Temp;Humidity;BMP_temperature;BMP_pressure;BME280_temperature;BME280_humidity;BME280_pressure;Samples;Min_cycle;Max_cycle;Signal;HPM_P1;HPM_P2
2022/03/04 00:02:00;;;;;;;28.63;13.50;;;;;;;12.00;41.81;101837.47;4913141;29;20060;-51
2022/03/04 00:04:26;;;;;;;29.77;13.60;;;;;;;12.09;41.74;101834.75;4909682;29;20048;-47
2022/03/04 00:06:55;;;;;;;23.48;11.32;;;;;;;12.08;42.60;101839.31;4887797;29;20051;-51
2022/03/04 00:09:21;;;;;;;28.33;12.93;;;;;;;12.01;42.08;101843.72;4901633;29;20029;-51
2022/03/04 00:11:48;;;;;;;27.03;12.07;;;;;;;12.31;43.32;101841.09;4911121;29;20041;-50
2022/03/04 00:14:14;;;;;;;34.47;11.90;;;;;;;12.12;41.70;101842.47;4911187;29;20061;-50
2022/03/04 00:16:40;;;;;;;26.48;13.75;;;;;;;12.12;41.63;101840.59;4918025;29;20044;-50
2022/03/04 00:19:10;;;;;;;29.07;12.07;;;;;;;12.12;42.09;101839.78;4906411;29;20045;-51
2022/03/04 00:21:36;;;;;;;32.80;13.25;;;;;;;12.10;41.63;101848.00;4915866;29;20037;-49
2022/03/04 00:24:01;;;;;;;27.40;13.13;;;;;;;12.08;41.96;101855.38;4912862;29;20052;-49
2022/03/04 00:26:27;;;;;;;27.95;13.38;;;;;;;12.18;41.74;101855.97;4902423;29;20120;-47
2022/03/04 00:28:53;;;;;;;54.50;14.97;;;;;;;12.21;41.84;101856.59;4900358;29;20048;-51
2022/03/04 00:31:18;;;;;;;29.05;12.80;;;;;;;12.07;41.93;101851.03;4905621;29;20088;-51
2022/03/04 00:33:44;;;;;;;27.10;12.33;;;;;;;12.04;42.14;101854.09;4914771;29;20049;-48
2022/03/04 00:36:09;;;;;;;33.57;14.60;;;;;;;12.02;42.27;101853.44;4913525;29;20048;-49
2022/03/04 00:38:35;;;;;;;29.17;12.90;;;;;;;11.93;42.53;101854.47;4908193;29;20044;-46
2022/03/04 00:41:00;;;;;;;29.67;12.53;;;;;;;11.79;42.49;101845.34;4918475;29;20100;-52
2022/03/04 00:43:25;;;;;;;35.43;14.27;;;;;;;11.77;42.76;101843.69;4907671;29;20051;-48
2022/03/04 00:45:52;;;;;;;27.73;12.90;;;;;;;11.85;42.86;101853.53;4913917;29;20045;-50
2022/03/04 00:48:17;;;;;;;27.20;12.70;;;;;;;11.72;43.22;101850.59;4914358;29;20024;-49
2022/03/04 00:50:43;;;;;;;28.80;13.87;;;;;;;11.90;42.94;101858.34;4906994;29;20041;-52
2022/03/04 00:53:08;;;;;;;29.60;13.83;;;;;;;11.66;43.51;101860.19;4918308;29;20076;-49
2022/03/04 00:55:38;;;;;;;32.30;13.40;;;;;;;11.70;44.18;101860.66;4888877;29;20045;-49
2022/03/04 00:58:07;;;;;;;27.42;13.63;;;;;;;11.71;44.54;101859.63;4893224;29;20042;-48
2022/03/04 01:00:34;;;;;;;31.63;14.73;;;;;;;11.75;44.95;101861.78;4897444;29;20133;-49
2022/03/04 01:03:03;;;;;;;27.10;13.57;;;;;;;11.80;45.21;101863.94;4886289;29;20108;-48
2022/03/04 01:05:29;;;;;;;30.95;14.13;;;;;;;11.83;45.62;101855.56;4896741;29;20119;-50
2022/03/04 01:07:54;;;;;;;33.83;14.57;;;;;;;11.84;45.21;101862.56;4891296;29;20029;-50
2022/03/04 01:10:20;;;;;;;31.57;14.10;;;;;;;11.79;45.55;101864.97;4890734;29;20044;-49
2022/03/04 01:12:46;;;;;;;31.83;13.90;;;;;;;11.59;45.77;101864.56;4898845;29;20053;-47
2022/03/04 01:15:12;;;;;;;33.75;15.15;;;;;;;11.56;46.21;101857.75;4886984;29;20040;-46
2022/03/04 01:17:38;;;;;;;33.00;14.00;;;;;;;11.65;46.12;101857.69;4896299;29;20049;-48
2022/03/04 01:20:06;;;;;;;30.80;14.60;;;;;;;11.52;46.48;101856.41;4893269;29;20057;-47
2022/03/04 01:22:31;;;;;;;37.65;15.65;;;;;;;11.51;47.02;101849.38;4889324;29;20052;-46
2022/03/04 01:24:57;;;;;;;33.70;14.52;;;;;;;11.54;47.12;101848.19;4898897;29;20041;-49
2022/03/04 01:27:24;;;;;;;40.65;16.33;;;;;;;11.48;47.94;101849.72;4888047;29;20071;-48
2022/03/04 01:29:50;;;;;;;37.13;16.38;;;;;;;11.46;48.87;101846.41;4894864;29;20039;-50
2022/03/04 01:32:16;;;;;;;33.15;14.82;;;;;;;11.42;49.75;101843.25;4894517;29;20048;-46
2022/03/04 01:34:42;;;;;;;37.30;14.93;;;;;;;11.52;48.52;101845.69;4888041;29;20055;-45
2022/03/04 01:37:08;;;;;;;30.80;14.82;;;;;;;11.33;47.66;101847.81;4898975;29;20037;-47
2022/03/04 01:39:33;;;;;;;34.22;14.32;;;;;;;11.28;47.23;101852.84;4887909;29;20033;-46
2022/03/04 01:41:59;;;;;;;36.33;14.47;;;;;;;11.11;47.29;101848.59;4893514;29;20061;-46
2022/03/04 01:44:24;;;;;;;33.97;14.57;;;;;;;11.22;46.85;101850.06;4895300;29;20339;-52
2022/03/04 01:46:50;;;;;;;33.13;15.83;;;;;;;11.29;46.50;101846.47;4885739;29;20109;-48
2022/03/04 01:49:16;;;;;;;28.88;13.40;;;;;;;11.05;47.33;101850.13;4898731;29;20048;-49
2022/03/04 01:51:41;;;;;;;33.50;13.50;;;;;;;11.16;47.11;101843.56;4889595;29;20101;-50
2022/03/04 01:54:07;;;;;;;33.57;14.00;;;;;;;11.05;48.21;101842.09;4892285;29;20053;-47
2022/03/04 01:56:33;;;;;;;34.93;15.10;;;;;;;10.98;47.86;101846.47;4906469;29;20045;-49
2022/03/04 01:58:58;;;;;;;32.57;13.60;;;;;;;10.94;47.85;101840.63;4904571;29;20037;-48
2022/03/04 02:01:23;;;;;;;32.07;13.63;;;;;;;10.90;48.03;101844.66;4899991;29;20037;-47
2022/03/04 02:03:49;;;;;;;33.60;15.13;;;;;;;11.05;47.65;101852.81;4908970;29;20040;-49
2022/03/04 02:06:16;;;;;;;36.35;14.32;;;;;;;11.07;48.19;101847.25;4909632;29;20048;-46
2022/03/04 02:08:41;;;;;;;32.50;15.68;;;;;;;11.00;47.68;101853.31;4915391;29;20033;-48
2022/03/04 02:11:07;;;;;;;33.00;13.05;;;;;;;10.91;48.04;101849.00;4904562;29;20045;-48
2022/03/04 02:13:34;;;;;;;31.60;14.48;;;;;;;10.83;48.24;101843.66;4915220;29;20073;-47
2022/03/04 02:16:00;;;;;;;38.85;14.55;;;;;;;10.86;47.99;101840.69;4910225;29;20039;-49
2022/03/04 02:18:26;;;;;;;32.80;13.93;;;;;;;11.03;47.41;101841.44;4907694;29;20045;-48
2022/03/04 02:20:53;;;;;;;37.38;15.02;;;;;;;10.91;47.44;101840.97;4916727;29;20044;-50
2022/03/04 02:23:19;;;;;;;30.40;14.38;;;;;;;10.84;47.72;101845.34;4904643;29;20056;-47
2022/03/04 02:25:47;;;;;;;;;;;;;;;10.84;47.79;101837.31;4913783;29;20051;-49
2022/03/04 02:28:12;;;;;;;34.00;14.25;;;;;;;10.82;47.76;101845.53;4911195;29;19919;-47
2022/03/04 02:30:38;;;;;;;36.30;14.70;;;;;;;10.71;48.62;101851.22;4890239;29;20109;-48
2022/03/04 02:33:07;;;;;;;34.33;14.18;;;;;;;10.65;49.00;101849.25;4916385;29;20051;-49
2022/03/04 02:35:34;;;;;;;32.45;13.85;;;;;;;10.71;49.02;101841.38;4906040;29;20040;-47
2022/03/04 02:38:00;;;;;;;31.45;14.68;;;;;;;10.56;49.42;101840.41;4911175;29;20036;-48
2022/03/04 02:40:26;;;;;;;40.05;15.35;;;;;;;10.67;49.15;101844.56;4913014;29;20096;-52
2022/03/04 02:42:52;;;;;;;33.53;13.17;;;;;;;10.39;50.39;101837.75;4904517;29;20045;-50
2022/03/04 02:45:18;;;;;;;33.80;13.80;;;;;;;10.50;50.05;101835.75;4916442;29;20371;-45
2022/03/04 02:47:44;;;;;;;31.93;13.90;;;;;;;10.45;50.54;101838.91;4907470;29;20040;-45
2022/03/04 02:50:10;;;;;;;35.28;15.05;;;;;;;10.52;50.17;101833.72;4909757;29;20029;-52
2022/03/04 02:52:36;;;;;;;36.95;14.82;;;;;;;10.41;50.95;101832.25;4914045;29;20052;-46
2022/03/04 02:55:03;;;;;;;36.30;15.45;;;;;;;10.33;51.44;101835.72;4903838;29;20117;-47
2022/03/04 02:57:28;;;;;;;35.03;14.45;;;;;;;10.11;52.82;101835.41;4914854;29;20045;-48
2022/03/04 02:59:54;;;;;;;34.83;14.67;;;;;;;10.30;52.85;101834.25;4908309;29;20072;-48
2022/03/04 03:02:19;;;;;;;32.37;13.30;;;;;;;10.30;52.80;101836.06;4908330;29;20276;-50
2022/03/04 03:04:45;;;;;;;32.67;13.80;;;;;;;10.23;52.41;101832.41;4914683;29;20077;-46
2022/03/04 03:07:10;;;;;;;34.10;14.53;;;;;;;10.28;52.09;101832.75;4903667;29;20314;-47
2022/03/04 03:09:35;;;;;;;37.93;14.97;;;;;;;10.37;51.82;101839.72;4913636;29;20036;-47
2022/03/04 03:12:01;;;;;;;38.23;15.90;;;;;;;9.51;54.54;101847.22;4908913;29;20036;-48
2022/03/04 03:14:27;;;;;;;38.63;16.50;;;;;;;9.54;58.96;101849.56;4906401;29;20152;-49
2022/03/04 03:16:52;;;;;;;39.10;14.77;;;;;;;9.95;56.08;101848.81;4915718;29;20044;-47
2022/03/04 03:19:18;;;;;;;34.78;14.73;;;;;;;10.04;55.18;101853.13;4903292;29;20107;-51
2022/03/04 03:21:43;;;;;;;37.00;16.80;;;;;;;10.05;55.24;101849.47;4912666;29;20048;-50
2022/03/04 03:24:09;;;;;;;41.23;15.23;;;;;;;9.98;55.02;101853.81;4909912;29;20032;-47
2022/03/04 03:26:34;;;;;;;32.80;14.50;;;;;;;10.00;56.76;101851.81;4906154;29;20064;-49
2022/03/04 03:29:01;;;;;;;37.67;15.33;;;;;;;10.09;55.73;101837.41;4915139;29;20040;-47
2022/03/04 03:31:26;;;;;;;;;;;;;;;9.96;56.30;101845.94;4904413;29;20032;-48
2022/03/04 03:33:52;;;;;;;38.73;14.77;;;;;;;9.87;58.62;101850.44;4911520;29;19923;-49
2022/03/04 03:36:17;;;;;;;26.37;11.70;;;;;;;9.97;57.96;101841.44;4910553;29;20060;-51
2022/03/04 03:38:43;;;;;;;36.80;14.83;;;;;;;9.72;59.05;101841.44;4905123;29;20069;-47
2022/03/04 03:41:09;;;;;;;33.03;13.77;;;;;;;9.97;58.61;101842.28;4915428;29;20045;-48
2022/03/04 03:43:34;;;;;;;33.92;14.50;;;;;;;9.92;58.00;101854.44;4904920;29;20283;-47
2022/03/04 03:46:00;;;;;;;31.23;14.13;;;;;;;9.83;59.58;101857.13;4910507;29;20037;-47
2022/03/04 03:48:25;;;;;;;35.70;14.27;;;;;;;9.78;58.83;101855.94;4911223;29;20100;-52
2022/03/04 03:50:51;;;;;;;37.03;16.77;;;;;;;9.81;59.79;101853.78;4887947;29;20048;-45
2022/03/04 03:53:16;;;;;;;36.93;15.47;;;;;;;9.70;62.04;101864.81;4915329;29;20033;-46
2022/03/04 03:55:42;;;;;;;41.17;16.13;;;;;;;9.94;60.27;101863.97;4905518;29;20063;-47
2022/03/04 03:58:07;;;;;;;37.20;15.45;;;;;;;9.89;61.81;101856.47;4909539;29;20037;-49
2022/03/04 04:00:34;;;;;;;35.40;14.77;;;;;;;9.95;61.72;101865.66;4912407;29;20048;-46
2022/03/04 04:03:00;;;;;;;35.55;15.63;;;;;;;9.66;65.04;101860.75;4902968;29;20041;-48
2022/03/04 04:05:25;;;;;;;38.10;15.63;;;;;;;9.55;66.44;101864.56;4915024;29;20101;-50
2022/03/04 04:07:51;;;;;;;36.20;14.93;;;;;;;9.52;65.54;101860.41;4906843;29;20103;-51
2022/03/04 04:10:16;;;;;;;28.80;11.50;;;;;;;9.77;63.49;101868.47;4908059;29;20048;-47
2022/03/04 04:12:42;;;;;;;28.10;12.40;;;;;;;9.01;67.44;101863.91;4913604;29;20084;-47
2022/03/04 04:15:08;;;;;;;36.90;14.93;;;;;;;9.77;63.70;101868.47;4902698;29;20037;-46
2022/03/04 04:17:34;;;;;;;33.40;15.43;;;;;;;9.77;64.34;101879.16;4913834;29;20080;-48
2022/03/04 04:19:59;;;;;;;37.58;16.55;;;;;;;9.78;64.09;101880.84;4907853;29;20037;-47
2022/03/04 04:22:25;;;;;;;40.97;18.57;;;;;;;9.83;64.10;101878.50;4907069;29;20049;-49
2022/03/04 04:24:50;;;;;;;37.07;16.97;;;;;;;9.69;64.63;101871.16;4898074;29;20108;-45
2022/03/04 04:27:16;;;;;;;45.30;17.07;;;;;;;9.67;64.63;101865.97;4902640;29;20045;-47
2022/03/04 04:29:41;;;;;;;37.47;15.70;;;;;;;9.66;64.33;101866.09;4912655;29;20036;-51
2022/03/04 04:32:07;;;;;;;40.00;16.33;;;;;;;9.64;64.27;101868.09;4908580;29;20064;-47
2022/03/04 04:34:33;;;;;;;47.90;17.95;;;;;;;9.83;63.22;101872.34;4906004;29;20060;-49
2022/03/04 04:36:58;;;;;;;40.90;17.13;;;;;;;9.71;62.80;101869.16;4914473;29;20103;-49
2022/03/04 04:39:24;;;;;;;42.27;17.53;;;;;;;9.68;62.57;101872.13;4887107;29;20036;-47
2022/03/04 04:41:49;;;;;;;41.20;17.67;;;;;;;9.69;62.74;101876.50;4915067;29;20037;-53
2022/03/04 04:44:15;;;;;;;39.10;15.23;;;;;;;9.65;62.95;101880.47;4912951;29;20104;-50
2022/03/04 04:46:40;;;;;;;45.40;18.40;;;;;;;9.73;62.22;101875.97;4908269;29;20096;-49
2022/03/04 04:49:06;;;;;;;42.73;17.07;;;;;;;9.76;61.29;101882.84;4917933;29;20129;-49
2022/03/04 04:51:31;;;;;;;42.27;19.20;;;;;;;9.69;61.43;101881.84;4890618;29;20060;-47
2022/03/04 04:53:57;;;;;;;38.35;15.93;;;;;;;9.56;62.36;101875.13;4913803;29;20041;-48
2022/03/04 04:56:22;;;;;;;40.30;15.97;;;;;;;9.41;63.92;101880.25;4894085;29;20053;-46
2022/03/04 04:58:48;;;;;;;41.83;17.03;;;;;;;9.52;62.85;101875.59;4888475;29;20033;-50
2022/03/04 05:01:14;;;;;;;33.97;14.97;;;;;;;9.30;65.05;101881.38;4899313;29;20036;-47
2022/03/04 05:03:40;;;;;;;40.13;16.42;;;;;;;9.19;66.47;101873.66;4889438;29;20062;-47
2022/03/04 05:06:05;;;;;;;33.60;13.80;;;;;;;9.10;67.46;101872.78;4894177;29;20041;-48
2022/03/04 05:08:31;;;;;;;38.67;17.38;;;;;;;9.24;66.26;101876.69;4895610;29;20041;-47
2022/03/04 05:10:56;;;;;;;41.30;16.90;;;;;;;9.20;66.47;101874.50;4887072;29;20037;-48
2022/03/04 05:13:22;;;;;;;36.33;15.00;;;;;;;9.25;65.59;101872.19;4899303;29;20108;-51
2022/03/04 05:15:48;;;;;;;36.78;17.50;;;;;;;9.18;66.49;101871.97;4889872;29;20401;-52
2022/03/04 05:18:14;;;;;;;43.72;17.85;;;;;;;9.13;67.16;101869.81;4892848;29;20037;-49
2022/03/04 05:20:40;;;;;;;46.47;17.77;;;;;;;9.15;67.30;101870.47;4896387;29;20074;-50
2022/03/04 05:23:06;;;;;;;49.58;19.25;;;;;;;9.08;67.90;101871.28;4886678;29;20052;-49
2022/03/04 05:25:32;;;;;;;39.53;17.80;;;;;;;9.12;68.25;101883.31;4898121;29;20030;-48
2022/03/04 05:27:57;;;;;;;39.23;15.63;;;;;;;8.96;70.10;101876.06;4891105;29;20108;-48
2022/03/04 05:30:23;;;;;;;41.13;16.17;;;;;;;9.12;69.44;101880.63;4891813;29;20052;-50
2022/03/04 05:32:48;;;;;;;46.33;18.53;;;;;;;9.17;68.50;101880.97;4883602;29;20038;-48
2022/03/04 05:35:14;;;;;;;45.57;19.83;;;;;;;9.23;68.09;101885.69;4898881;29;20041;-48
2022/03/04 05:37:39;;;;;;;44.97;18.90;;;;;;;9.07;71.79;101882.94;4888515;29;20025;-48
2022/03/04 05:40:06;;;;;;;46.85;18.75;;;;;;;9.18;70.90;101891.50;4893671;29;20037;-51
2022/03/04 05:42:31;;;;;;;38.83;17.80;;;;;;;9.04;72.60;101886.75;4895098;29;20041;-48
2022/03/04 05:44:57;;;;;;;43.40;19.53;;;;;;;9.08;71.82;101890.78;4886788;29;20041;-48
2022/03/04 05:47:23;;;;;;;45.25;17.83;;;;;;;9.13;71.13;101898.31;4898553;29;20041;-47
2022/03/04 05:49:48;;;;;;;44.97;20.87;;;;;;;9.14;70.64;101894.66;4889262;29;20037;-49
2022/03/04 05:52:14;;;;;;;52.77;20.37;;;;;;;9.07;70.93;101896.28;4892041;29;20100;-51
2022/03/04 05:54:39;;;;;;;54.77;19.67;;;;;;;9.10;71.20;101902.13;4895704;29;20045;-51
2022/03/04 05:57:06;;;;;;;41.17;17.57;;;;;;;9.00;71.69;101899.59;4916103;29;20056;-48
2022/03/04 05:59:32;;;;;;;43.58;17.92;;;;;;;9.12;70.76;101908.16;4905758;29;20025;-49
2022/03/04 06:01:57;;;;;;;48.53;17.67;;;;;;;9.32;69.44;101911.41;4913482;29;20037;-47
2022/03/04 06:04:22;;;;;;;36.43;16.17;;;;;;;9.23;70.68;101909.72;4912440;29;20048;-46
2022/03/04 06:06:48;;;;;;;49.03;19.35;;;;;;;9.16;71.47;101903.31;4906472;29;20065;-46
2022/03/04 06:09:14;;;;;;;41.37;17.53;;;;;;;8.95;72.25;101896.56;4916735;29;20041;-48
2022/03/04 06:11:40;;;;;;;41.78;16.38;;;;;;;8.86;72.43;101900.19;4906324;29;20032;-47
2022/03/04 06:14:06;;;;;;;41.50;16.77;;;;;;;8.96;70.15;101898.22;4911587;29;20060;-49
2022/03/04 06:16:32;;;;;;;42.45;17.95;;;;;;;8.89;69.54;101903.38;4913063;29;20041;-51
2022/03/04 06:18:58;;;;;;;40.60;17.83;;;;;;;8.78;70.49;101905.47;4888954;29;20041;-47
2022/03/04 06:21:24;;;;;;;41.00;17.27;;;;;;;8.94;69.00;101910.06;4916828;29;20029;-51
2022/03/04 06:23:50;;;;;;;38.30;15.95;;;;;;;8.54;70.13;101905.13;4901406;29;20047;-46
2022/03/04 06:26:15;;;;;;;38.70;16.87;;;;;;;8.56;70.86;101911.16;4910626;29;20099;-46
2022/03/04 06:28:41;;;;;;;40.50;16.57;;;;;;;8.89;69.04;101915.88;4907217;29;20052;-51
2022/03/04 06:31:06;;;;;;;41.93;18.00;;;;;;;8.81;68.60;101910.50;4900271;29;20036;-48
2022/03/04 06:33:32;;;;;;;44.23;18.60;;;;;;;8.77;68.35;101914.47;4904623;29;20059;-46
2022/03/04 06:36:00;;;;;;;39.53;16.73;;;;;;;8.88;68.70;101919.53;4912538;29;20089;-45
2022/03/04 06:38:26;;;;;;;38.65;16.17;;;;;;;8.82;67.84;101912.97;4911825;29;20060;-48
2022/03/04 06:40:52;;;;;;;43.55;18.35;;;;;;;8.79;68.08;101917.81;4905933;29;20049;-51
2022/03/04 06:43:18;;;;;;;40.60;16.73;;;;;;;8.87;67.15;101915.19;4916349;29;20098;-48
2022/03/04 06:45:46;;;;;;;41.88;16.50;;;;;;;9.01;66.17;101927.09;4906207;29;20044;-49
2022/03/04 06:48:13;;;;;;;41.08;17.20;;;;;;;9.01;65.08;101930.63;4910576;29;20037;-49
2022/03/04 06:50:39;;;;;;;39.03;16.63;;;;;;;9.05;64.14;101933.78;4896713;29;20036;-49
2022/03/04 06:53:05;;;;;;;32.72;14.88;;;;;;;9.09;63.95;101943.16;4903762;29;20053;-50
2022/03/04 06:55:31;;;;;;;40.65;15.90;;;;;;;9.18;63.36;101944.03;4915682;29;20109;-47
2022/03/04 06:57:58;;;;;;;38.63;16.77;;;;;;;9.06;63.63;101948.00;4907598;29;20044;-48
2022/03/04 07:00:24;;;;;;;39.30;16.75;;;;;;;9.26;62.68;101948.59;4909040;29;20033;-46
2022/03/04 07:02:56;;;;;;;34.40;14.82;;;;;;;9.25;62.12;101955.78;4918174;29;20073;-48
2022/03/04 07:05:23;;;;;;;39.83;16.57;;;;;;;9.30;62.00;101953.47;4916325;29;20060;-47
2022/03/04 07:07:49;;;;;;;35.13;16.55;;;;;;;9.33;61.90;101947.78;4906170;29;20263;-46
2022/03/04 07:10:15;;;;;;;38.30;16.83;;;;;;;9.35;62.33;101955.66;4909744;29;20037;-48
2022/03/04 07:12:41;;;;;;;39.90;16.25;;;;;;;9.43;62.36;101961.03;4912855;29;20044;-50
2022/03/04 07:15:08;;;;;;;39.27;15.87;;;;;;;9.51;61.89;101965.56;4887292;29;20045;-48
2022/03/04 07:17:33;;;;;;;42.28;15.70;;;;;;;9.62;61.11;101972.44;4915009;29;20025;-49
2022/03/04 07:19:59;;;;;;;42.83;15.90;;;;;;;9.71;59.91;101965.31;4907424;29;20047;-51
2022/03/04 07:22:24;;;;;;;36.87;15.60;;;;;;;9.68;59.46;101974.47;4908796;29;20116;-48
2022/03/04 07:24:50;;;;;;;43.00;17.77;;;;;;;9.69;59.62;101978.81;4914140;29;20335;-47
2022/03/04 07:27:16;;;;;;;35.58;16.55;;;;;;;9.74;58.78;101981.84;4902390;29;20049;-49
2022/03/04 07:29:41;;;;;;;39.87;16.03;;;;;;;9.68;59.02;101982.47;4914100;29;20037;-47
2022/03/04 07:32:07;;;;;;;35.80;14.60;;;;;;;9.79;58.79;101994.72;4907219;29;20040;-47
2022/03/04 07:34:32;;;;;;;35.42;16.35;;;;;;;9.79;58.78;101986.69;4907280;29;20101;-46
2022/03/04 07:36:58;;;;;;;29.43;12.80;;;;;;;9.85;58.52;101987.88;4914667;29;20068;-50
2022/03/04 07:39:23;;;;;;;37.50;16.60;;;;;;;9.85;59.16;101991.38;4902928;29;20070;-48
2022/03/04 07:41:50;;;;;;;37.17;15.63;;;;;;;10.04;58.26;101981.41;4913000;29;20033;-47
2022/03/04 07:44:24;;;;;;;39.38;17.55;;;;;;;9.98;57.96;101980.22;4909480;29;20036;-49
2022/03/04 07:46:50;;;;;;;39.25;15.07;;;;;;;10.17;57.68;101986.28;4905252;29;20044;-49
2022/03/04 07:49:16;;;;;;;35.30;15.83;;;;;;;10.16;57.36;101984.63;4898378;29;20040;-50
2022/03/04 07:51:43;;;;;;;37.45;14.73;;;;;;;10.19;57.07;101982.47;4904451;29;20037;-47
2022/03/04 07:54:09;;;;;;;35.65;16.63;;;;;;;10.20;57.38;101985.94;4918539;29;20060;-48
2022/03/04 07:56:34;;;;;;;40.30;16.50;;;;;;;10.34;56.93;101973.78;4907043;29;20052;-50
2022/03/04 07:59:00;;;;;;;38.92;16.50;;;;;;;10.52;56.04;101983.50;4898278;29;20052;-47
2022/03/04 08:01:25;;;;;;;38.70;15.60;;;;;;;10.54;56.06;101982.34;4902953;29;20059;-48
2022/03/04 08:03:51;;;;;;;34.73;15.13;;;;;;;10.61;55.34;101980.66;4912746;29;20077;-48
2022/03/04 08:06:16;;;;;;;34.27;14.77;;;;;;;10.51;55.27;101976.50;4907946;29;20096;-46
2022/03/04 08:08:42;;;;;;;29.93;12.33;;;;;;;10.59;54.74;101984.50;4902061;29;20052;-47
2022/03/04 08:11:07;;;;;;;38.23;15.00;;;;;;;10.68;54.12;101991.53;4918375;29;20037;-48
2022/03/04 08:13:34;;;;;;;37.47;15.70;;;;;;;10.78;53.67;101988.69;4903342;29;20032;-46
2022/03/04 08:16:00;;;;;;;35.45;15.02;;;;;;;10.66;53.08;101982.84;4913954;29;20404;-46
2022/03/04 08:18:26;;;;;;;;;;;;;;;10.78;52.95;101994.06;4914354;29;20056;-46
2022/03/04 08:20:52;;;;;;;34.63;14.20;;;;;;;10.80;52.52;101994.72;4908545;29;20011;-46
2022/03/04 08:23:18;;;;;;;31.50;14.52;;;;;;;10.90;51.87;101999.91;4918905;29;20036;-49
2022/03/04 08:25:44;;;;;;;32.43;14.30;;;;;;;10.95;52.01;102000.22;4908138;29;20039;-47
2022/03/04 08:28:10;;;;;;;35.88;15.07;;;;;;;10.87;52.45;102008.25;4913945;29;20041;-46
2022/03/04 08:30:36;;;;;;;35.40;15.40;;;;;;;10.87;51.91;102010.94;4914655;29;20104;-47
2022/03/04 08:33:02;;;;;;;32.72;13.68;;;;;;;11.07;51.29;102018.59;4907174;29;20045;-47
2022/03/04 08:35:27;;;;;;;34.13;13.77;;;;;;;11.14;51.04;102024.97;4918701;29;20116;-49
2022/03/04 08:37:53;;;;;;;33.80;13.97;;;;;;;11.36;51.09;102028.75;4909138;29;20033;-49
2022/03/04 08:40:18;;;;;;;32.63;14.18;;;;;;;10.19;54.79;102029.72;4912494;29;20044;-47
2022/03/04 08:42:45;;;;;;;32.47;14.80;;;;;;;10.16;56.39;102028.25;4915588;29;20099;-50
2022/03/04 08:45:13;;;;;;;34.60;15.07;;;;;;;11.47;51.99;102024.88;4906245;29;20096;-48
2022/03/04 08:47:41;;;;;;;33.50;14.82;;;;;;;12.27;48.10;102030.25;4917545;29;20056;-50
2022/03/04 08:50:08;;;;;;;28.85;12.57;;;;;;;12.87;47.23;102033.13;4910688;29;20041;-49
2022/03/04 08:52:34;;;;;;;34.95;14.27;;;;;;;13.34;46.04;102040.03;4905055;29;20044;-51
2022/03/04 08:55:00;;;;;;;34.60;14.55;;;;;;;14.01;45.93;102036.59;4921504;29;20067;-49
2022/03/04 08:57:26;;;;;;;30.43;15.93;;;;;;;14.27;44.71;102038.75;4905624;29;20045;-48
2022/03/04 08:59:51;;;;;;;36.37;14.63;;;;;;;14.68;42.86;102036.47;4915735;29;20052;-48
2022/03/04 09:02:16;;;;;;;43.07;15.47;;;;;;;15.34;41.69;102038.84;4911318;29;20331;-49
2022/03/04 09:04:42;;;;;;;27.23;13.83;;;;;;;16.05;40.22;102036.09;4909391;29;20105;-47
2022/03/04 09:07:07;;;;;;;31.13;14.00;;;;;;;16.65;38.21;102035.38;4917831;29;20100;-47
2022/03/04 09:09:34;;;;;;;26.42;13.35;;;;;;;16.77;36.61;102038.28;4889410;29;20036;-48
2022/03/04 09:12:00;;;;;;;29.10;14.43;;;;;;;17.34;35.51;102038.69;4914216;29;20075;-48
2022/03/04 09:14:26;;;;;;;27.90;14.00;;;;;;;17.51;35.01;102040.91;4912479;29;20040;-49
2022/03/04 09:16:52;;;;;;;32.03;15.02;;;;;;;18.10;33.73;102034.66;4907989;29;20060;-49
2022/03/04 09:19:19;;;;;;;28.92;14.05;;;;;;;18.61;32.67;102033.69;4901517;29;20029;-49
2022/03/04 09:21:45;;;;;;;28.33;13.95;;;;;;;19.19;31.92;102029.03;4907104;29;20071;-47
2022/03/04 09:24:11;;;;;;;28.03;13.37;;;;;;;19.58;31.21;102017.94;4912920;29;20040;-50
2022/03/04 09:26:36;;;;;;;29.50;15.40;;;;;;;19.74;30.82;102029.25;4912377;29;20315;-49
2022/03/04 09:29:02;;;;;;;28.23;14.60;;;;;;;20.04;30.01;102012.16;4906302;29;20061;-49
2022/03/04 09:31:28;;;;;;;23.75;13.20;;;;;;;20.49;29.81;102008.16;4917606;29;20047;-47
2022/03/04 09:33:54;;;;;;;29.55;14.73;;;;;;;21.00;29.29;102015.91;4907866;29;20048;-52
2022/03/04 09:36:19;;;;;;;27.25;15.00;;;;;;;21.68;28.18;102015.44;4911783;29;20029;-48
2022/03/04 09:38:45;;;;;;;32.58;14.60;;;;;;;22.13;27.43;102008.38;4914373;29;20037;-49
2022/03/04 09:41:11;;;;;;;24.02;12.85;;;;;;;21.97;27.48;102007.28;4905038;29;20040;-50
2022/03/04 09:43:38;;;;;;;27.50;13.98;;;;;;;22.45;26.82;102013.28;4917124;29;20048;-50
2022/03/04 09:46:05;;;;;;;25.53;14.00;;;;;;;22.49;26.76;102017.22;4908825;29;20084;-52
2022/03/04 09:48:32;;;;;;;28.55;13.80;;;;;;;22.62;26.43;102010.59;4910114;29;20292;-52
2022/03/04 09:50:57;;;;;;;26.13;14.30;;;;;;;23.17;26.15;102024.47;4915477;29;20068;-50
2022/03/04 09:53:23;;;;;;;26.10;14.73;;;;;;;23.36;25.64;102021.50;4902408;29;20049;-50
2022/03/04 09:55:49;;;;;;;33.65;14.63;;;;;;;23.87;24.89;102021.25;4915274;29;20072;-51
2022/03/04 09:58:16;;;;;;;28.80;14.85;;;;;;;23.72;24.70;102025.47;4909992;29;20048;-49
2022/03/04 10:00:43;;;;;;;26.23;13.67;;;;;;;23.67;25.03;102019.97;4908590;29;20045;-46
2022/03/04 10:03:32;;;;;;;21.70;12.47;;;;;;;23.62;25.66;102028.91;4916916;29;20065;-53
2022/03/04 10:06:00;;;;;;;24.80;13.67;;;;;;;23.72;25.59;102030.09;4907292;29;20043;-50
2022/03/04 10:08:27;;;;;;;26.53;14.20;;;;;;;24.08;24.73;102037.88;4910371;29;20045;-53
2022/03/04 10:10:55;;;;;;;27.93;14.57;;;;;;;24.58;24.38;102030.41;4914710;29;20043;-51
2022/03/04 10:13:44;;;;;;;26.13;14.23;;;;;;;25.00;23.56;102037.81;4904383;29;20066;-51
2022/03/04 10:16:22;;;;;;;26.53;14.70;;;;;;;24.85;23.35;102033.09;4912339;29;20036;-49
2022/03/04 10:19:13;;;;;;;25.57;14.73;;;;;;;25.58;22.72;102026.06;4897098;29;20040;-50
2022/03/04 10:22:05;;;;;;;28.00;14.17;;;;;;;25.68;22.36;102029.94;4897166;29;20048;-52
2022/03/04 10:24:33;;;;;;;24.30;14.57;;;;;;;25.48;22.82;102031.53;4903019;29;20049;-54
2022/03/04 10:27:01;;;;;;;22.20;12.83;;;;;;;25.50;23.07;102028.53;4915298;29;20051;-49
2022/03/04 10:29:29;;;;;;;26.40;14.73;;;;;;;25.85;22.01;102035.19;4904030;29;20124;-51
2022/03/04 10:32:09;;;;;;;26.17;15.20;;;;;;;26.77;21.72;102028.13;4914162;29;20070;-47
2022/03/04 10:34:47;;;;;;;25.70;14.60;;;;;;;27.08;21.63;102043.72;4911646;29;20044;-49
2022/03/04 10:37:14;;;;;;;24.50;14.27;;;;;;;27.38;20.37;102044.72;4903857;29;20097;-50
2022/03/04 10:39:58;;;;;;;27.77;14.50;;;;;;;27.56;20.58;102041.38;4915656;29;20036;-50
2022/03/04 10:42:46;;;;;;;26.70;14.67;;;;;;;27.68;20.67;102046.53;4910240;29;20057;-52
2022/03/04 10:45:16;;;;;;;28.10;14.87;;;;;;;28.31;20.03;102041.47;4904258;29;20044;-52
2022/03/04 10:47:46;;;;;;;24.10;15.07;;;;;;;28.71;20.23;102036.72;4904208;29;20037;-50
2022/03/04 10:50:13;;;;;;;21.37;13.50;;;;;;;28.98;19.46;102029.84;4919237;29;20048;-52
2022/03/04 10:53:00;;;;;;;24.60;15.57;;;;;;;29.08;19.60;102034.41;4907877;29;20046;-49
2022/03/04 10:55:33;;;;;;;22.90;14.77;;;;;;;29.81;18.60;102041.78;4915828;29;20049;-52
2022/03/04 10:58:00;;;;;;;21.70;12.80;;;;;;;29.40;19.32;102032.13;4906292;29;20036;-50
2022/03/04 11:00:33;;;;;;;27.27;15.00;;;;;;;29.55;18.73;102026.44;4909749;29;20057;-50
2022/03/04 11:02:59;;;;;;;23.30;14.93;;;;;;;29.61;18.77;102025.25;4914299;29;20036;-53
2022/03/04 11:05:24;;;;;;;;;;;;;;;30.17;18.38;102033.78;4902595;29;20112;-54
2022/03/04 11:07:51;;;;;;;23.20;13.57;;;;;;;30.54;18.34;102030.44;4905172;29;19920;-51
2022/03/04 11:10:18;;;;;;;30.67;15.03;;;;;;;30.85;18.11;102027.13;4911079;29;20069;-49
2022/03/04 11:12:45;;;;;;;20.57;13.20;;;;;;;30.94;17.87;102030.81;4911767;29;20115;-49